sensor_id;sensor_type;location;lat;lon;timestamp;P1;durP1;ratioP1;P2;durP2;ratioP2
62633;SDS011;48704;50.534;6.442;2023-07-28T00:01:42;1.00;;;0.28;;
62633;SDS011;48704;50.534;6.442;2023-07-28T00:04:07;1.10;;;0.30;;
62633;SDS011;48704;50.534;6.442;2023-07-28T00:06:34;0.38;;;0.15;;
62633;SDS011;48704;50.534;6.442;2023-07-28T00:08:59;0.57;;;0.20;;
62633;SDS011;48704;50.534;6.442;2023-07-28T00:11:25;1.00;;;0.13;;
62633;SDS011;48704;50.534;6.442;2023-07-28T00:13:50;0.38;;;0.20;;
62633;SDS011;48704;50.534;6.442;2023-07-28T00:16:15;0.35;;;0.13;;
62633;SDS011;48704;50.534;6.442;2023-07-28T00:18:41;1.15;;;0.28;;
62633;SDS011;48704;50.534;6.442;2023-07-28T00:21:06;0.10;;;0.00;;
62633;SDS011;48704;50.534;6.442;2023-07-28T00:23:32;0.22;;;0.10;;
62633;SDS011;48704;50.534;6.442;2023-07-28T00:25:57;0.95;;;0.17;;
62633;SDS011;48704;50.534;6.442;2023-07-28T00:28:22;2.40;;;0.20;;
62633;SDS011;48704;50.534;6.442;2023-07-28T00:30:51;0.55;;;0.10;;
62633;SDS011;48704;50.534;6.442;2023-07-28T00:33:16;1.15;;;0.17;;
62633;SDS011;48704;50.534;6.442;2023-07-28T00:35:42;0.20;;;0.10;;
62633;SDS011;48704;50.534;6.442;2023-07-28T00:38:08;0.52;;;0.20;;
62633;SDS011;48704;50.534;6.442;2023-07-28T00:40:34;0.75;;;0.10;;
62633;SDS011;48704;50.534;6.442;2023-07-28T00:43:01;0.20;;;0.10;;
62633;SDS011;48704;50.534;6.442;2023-07-28T00:45:26;0.35;;;0.10;;
62633;SDS011;48704;50.534;6.442;2023-07-28T00:47:52;0.20;;;0.10;;
62633;SDS011;48704;50.534;6.442;2023-07-28T00:50:17;0.13;;;0.10;;
62633;SDS011;48704;50.534;6.442;2023-07-28T00:52:43;0.10;;;0.10;;
62633;SDS011;48704;50.534;6.442;2023-07-28T00:55:08;0.65;;;0.13;;
62633;SDS011;48704;50.534;6.442;2023-07-28T00:57:34;1.27;;;0.20;;
62633;SDS011;48704;50.534;6.442;2023-07-28T01:00:00;0.20;;;0.10;;
62633;SDS011;48704;50.534;6.442;2023-07-28T01:02:25;0.00;;;0.00;;
62633;SDS011;48704;50.534;6.442;2023-07-28T01:04:51;0.15;;;0.10;;
62633;SDS011;48704;50.534;6.442;2023-07-28T01:07:22;1.75;;;0.20;;
62633;SDS011;48704;50.534;6.442;2023-07-28T01:09:52;0.35;;;0.13;;
62633;SDS011;48704;50.534;6.442;2023-07-28T01:12:41;0.20;;;0.10;;
62633;SDS011;48704;50.534;6.442;2023-07-28T01:15:07;0.22;;;0.10;;
62633;SDS011;48704;50.534;6.442;2023-07-28T01:17:32;1.48;;;0.40;;
62633;SDS011;48704;50.534;6.442;2023-07-28T01:19:57;1.13;;;0.52;;
62633;SDS011;48704;50.534;6.442;2023-07-28T01:25:18;1.47;;;0.60;;
62633;SDS011;48704;50.534;6.442;2023-07-28T01:27:46;1.40;;;0.63;;
62633;SDS011;48704;50.534;6.442;2023-07-28T01:30:13;1.17;;;0.60;;
62633;SDS011;48704;50.534;6.442;2023-07-28T01:32:39;2.53;;;0.73;;
62633;SDS011;48704;50.534;6.442;2023-07-28T01:35:05;1.88;;;0.75;;
62633;SDS011;48704;50.534;6.442;2023-07-28T01:37:30;1.45;;;0.70;;
62633;SDS011;48704;50.534;6.442;2023-07-28T01:39:56;2.35;;;1.08;;
62633;SDS011;48704;50.534;6.442;2023-07-28T01:42:22;1.50;;;0.73;;
62633;SDS011;48704;50.534;6.442;2023-07-28T01:44:48;1.95;;;0.60;;
62633;SDS011;48704;50.534;6.442;2023-07-28T01:47:14;1.75;;;0.75;;
62633;SDS011;48704;50.534;6.442;2023-07-28T01:49:39;1.50;;;0.68;;
62633;SDS011;48704;50.534;6.442;2023-07-28T01:52:04;1.13;;;0.60;;
62633;SDS011;48704;50.534;6.442;2023-07-28T01:54:30;2.05;;;0.90;;
62633;SDS011;48704;50.534;6.442;2023-07-28T01:56:55;1.17;;;0.60;;
62633;SDS011;48704;50.534;6.442;2023-07-28T01:59:21;1.48;;;0.50;;
62633;SDS011;48704;50.534;6.442;2023-07-28T02:01:46;1.70;;;1.00;;
62633;SDS011;48704;50.534;6.442;2023-07-28T02:04:12;0.85;;;0.45;;
62633;SDS011;48704;50.534;6.442;2023-07-28T02:06:37;1.38;;;0.45;;
62633;SDS011;48704;50.534;6.442;2023-07-28T02:09:03;1.15;;;0.50;;
62633;SDS011;48704;50.534;6.442;2023-07-28T02:11:28;0.98;;;0.50;;
62633;SDS011;48704;50.534;6.442;2023-07-28T02:13:53;1.08;;;0.40;;
62633;SDS011;48704;50.534;6.442;2023-07-28T02:16:19;1.17;;;0.50;;
62633;SDS011;48704;50.534;6.442;2023-07-28T02:18:44;1.33;;;0.60;;
62633;SDS011;48704;50.534;6.442;2023-07-28T02:21:09;1.35;;;0.60;;
62633;SDS011;48704;50.534;6.442;2023-07-28T02:23:35;0.88;;;0.45;;
62633;SDS011;48704;50.534;6.442;2023-07-28T02:26:00;1.50;;;0.50;;
62633;SDS011;48704;50.534;6.442;2023-07-28T02:28:26;0.77;;;0.30;;
62633;SDS011;48704;50.534;6.442;2023-07-28T02:30:51;1.70;;;0.30;;
62633;SDS011;48704;50.534;6.442;2023-07-28T02:33:16;0.98;;;0.50;;
62633;SDS011;48704;50.534;6.442;2023-07-28T02:35:42;0.73;;;0.30;;
62633;SDS011;48704;50.534;6.442;2023-07-28T02:38:07;0.60;;;0.30;;
62633;SDS011;48704;50.534;6.442;2023-07-28T02:40:33;0.52;;;0.38;;
62633;SDS011;48704;50.534;6.442;2023-07-28T02:42:59;0.95;;;0.50;;
62633;SDS011;48704;50.534;6.442;2023-07-28T02:45:24;0.43;;;0.20;;
62633;SDS011;48704;50.534;6.442;2023-07-28T02:47:52;0.60;;;0.30;;
62633;SDS011;48704;50.534;6.442;2023-07-28T02:50:18;0.65;;;0.30;;
62633;SDS011;48704;50.534;6.442;2023-07-28T02:52:43;0.90;;;0.22;;
62633;SDS011;48704;50.534;6.442;2023-07-28T02:55:08;0.68;;;0.30;;
62633;SDS011;48704;50.534;6.442;2023-07-28T02:57:34;0.63;;;0.38;;
62633;SDS011;48704;50.534;6.442;2023-07-28T02:59:59;1.58;;;0.40;;
62633;SDS011;48704;50.534;6.442;2023-07-28T03:02:24;0.47;;;0.20;;
62633;SDS011;48704;50.534;6.442;2023-07-28T03:04:50;0.95;;;0.38;;
62633;SDS011;48704;50.534;6.442;2023-07-28T03:07:15;0.77;;;0.30;;
62633;SDS011;48704;50.534;6.442;2023-07-28T03:09:41;0.30;;;0.20;;
62633;SDS011;48704;50.534;6.442;2023-07-28T03:12:06;0.30;;;0.10;;
62633;SDS011;48704;50.534;6.442;2023-07-28T03:14:32;0.10;;;0.10;;
62633;SDS011;48704;50.534;6.442;2023-07-28T03:16:57;0.50;;;0.30;;
62633;SDS011;48704;50.534;6.442;2023-07-28T03:19:23;0.10;;;0.00;;
62633;SDS011;48704;50.534;6.442;2023-07-28T03:21:48;2.42;;;1.33;;
62633;SDS011;48704;50.534;6.442;2023-07-28T03:24:13;1.00;;;0.20;;
62633;SDS011;48704;50.534;6.442;2023-07-28T03:26:39;0.45;;;0.15;;
62633;SDS011;48704;50.534;6.442;2023-07-28T03:29:04;1.17;;;0.20;;
62633;SDS011;48704;50.534;6.442;2023-07-28T03:31:29;0.65;;;0.10;;
62633;SDS011;48704;50.534;6.442;2023-07-28T03:33:55;0.25;;;0.10;;
62633;SDS011;48704;50.534;6.442;2023-07-28T03:36:20;0.00;;;0.00;;
62633;SDS011;48704;50.534;6.442;2023-07-28T03:38:46;0.50;;;0.15;;
62633;SDS011;48704;50.534;6.442;2023-07-28T03:41:12;2.22;;;0.10;;
62633;SDS011;48704;50.534;6.442;2023-07-28T03:43:37;0.65;;;0.10;;
62633;SDS011;48704;50.534;6.442;2023-07-28T03:46:03;0.15;;;0.00;;
62633;SDS011;48704;50.534;6.442;2023-07-28T03:48:28;0.35;;;0.15;;
62633;SDS011;48704;50.534;6.442;2023-07-28T03:50:53;1.30;;;0.20;;
62633;SDS011;48704;50.534;6.442;2023-07-28T03:53:19;0.25;;;0.10;;
62633;SDS011;48704;50.534;6.442;2023-07-28T03:55:44;1.10;;;0.80;;
62633;SDS011;48704;50.534;6.442;2023-07-28T03:58:09;0.20;;;0.10;;
62633;SDS011;48704;50.534;6.442;2023-07-28T04:00:34;1.30;;;0.25;;
62633;SDS011;48704;50.534;6.442;2023-07-28T04:03:00;0.10;;;0.10;;
62633;SDS011;48704;50.534;6.442;2023-07-28T04:05:25;0.10;;;0.08;;
62633;SDS011;48704;50.534;6.442;2023-07-28T04:07:50;0.20;;;0.10;;
62633;SDS011;48704;50.534;6.442;2023-07-28T04:10:16;0.40;;;0.10;;
62633;SDS011;48704;50.534;6.442;2023-07-28T04:12:41;2.72;;;0.10;;
62633;SDS011;48704;50.534;6.442;2023-07-28T04:15:07;0.28;;;0.15;;
62633;SDS011;48704;50.534;6.442;2023-07-28T04:17:32;0.10;;;0.10;;
62633;SDS011;48704;50.534;6.442;2023-07-28T04:19:58;2.83;;;0.10;;
62633;SDS011;48704;50.534;6.442;2023-07-28T04:22:23;0.32;;;0.13;;
62633;SDS011;48704;50.534;6.442;2023-07-28T04:24:48;0.55;;;0.10;;
62633;SDS011;48704;50.534;6.442;2023-07-28T04:27:14;1.75;;;0.10;;
62633;SDS011;48704;50.534;6.442;2023-07-28T04:29:39;0.00;;;0.00;;
62633;SDS011;48704;50.534;6.442;2023-07-28T04:32:05;0.10;;;0.10;;
62633;SDS011;48704;50.534;6.442;2023-07-28T04:34:32;0.00;;;0.00;;
62633;SDS011;48704;50.534;6.442;2023-07-28T04:36:58;0.30;;;0.10;;
62633;SDS011;48704;50.534;6.442;2023-07-28T04:39:24;1.38;;;0.15;;
62633;SDS011;48704;50.534;6.442;2023-07-28T04:41:49;0.20;;;0.10;;
62633;SDS011;48704;50.534;6.442;2023-07-28T04:44:14;0.00;;;0.00;;
62633;SDS011;48704;50.534;6.442;2023-07-28T04:46:40;0.10;;;0.00;;
62633;SDS011;48704;50.534;6.442;2023-07-28T04:49:05;0.15;;;0.10;;
62633;SDS011;48704;50.534;6.442;2023-07-28T04:51:30;1.40;;;0.20;;
62633;SDS011;48704;50.534;6.442;2023-07-28T04:53:56;0.60;;;0.10;;
62633;SDS011;48704;50.534;6.442;2023-07-28T04:56:21;1.15;;;0.10;;
62633;SDS011;48704;50.534;6.442;2023-07-28T04:58:46;1.35;;;0.10;;
62633;SDS011;48704;50.534;6.442;2023-07-28T05:01:11;0.13;;;0.05;;
62633;SDS011;48704;50.534;6.442;2023-07-28T05:03:38;0.05;;;0.05;;
62633;SDS011;48704;50.534;6.442;2023-07-28T05:06:03;0.00;;;0.00;;
62633;SDS011;48704;50.534;6.442;2023-07-28T05:08:31;1.05;;;0.10;;
62633;SDS011;48704;50.534;6.442;2023-07-28T05:10:57;0.10;;;0.10;;
62633;SDS011;48704;50.534;6.442;2023-07-28T05:13:23;0.32;;;0.20;;
62633;SDS011;48704;50.534;6.442;2023-07-28T05:15:48;0.55;;;0.10;;
62633;SDS011;48704;50.534;6.442;2023-07-28T05:18:13;0.25;;;0.15;;
62633;SDS011;48704;50.534;6.442;2023-07-28T05:20:38;0.30;;;0.20;;
62633;SDS011;48704;50.534;6.442;2023-07-28T05:23:04;0.17;;;0.10;;
62633;SDS011;48704;50.534;6.442;2023-07-28T05:25:29;0.30;;;0.10;;
62633;SDS011;48704;50.534;6.442;2023-07-28T05:27:55;0.25;;;0.10;;
62633;SDS011;48704;50.534;6.442;2023-07-28T05:30:20;0.68;;;0.17;;
62633;SDS011;48704;50.534;6.442;2023-07-28T05:32:46;2.50;;;0.20;;
62633;SDS011;48704;50.534;6.442;2023-07-28T05:35:12;0.30;;;0.10;;
62633;SDS011;48704;50.534;6.442;2023-07-28T05:37:37;0.45;;;0.20;;
62633;SDS011;48704;50.534;6.442;2023-07-28T05:40:03;0.38;;;0.10;;
62633;SDS011;48704;50.534;6.442;2023-07-28T05:42:28;0.82;;;0.20;;
62633;SDS011;48704;50.534;6.442;2023-07-28T05:44:54;0.13;;;0.10;;
62633;SDS011;48704;50.534;6.442;2023-07-28T05:47:20;0.55;;;0.25;;
62633;SDS011;48704;50.534;6.442;2023-07-28T05:49:46;0.65;;;0.20;;
62633;SDS011;48704;50.534;6.442;2023-07-28T05:52:11;0.20;;;0.10;;
62633;SDS011;48704;50.534;6.442;2023-07-28T05:54:36;0.47;;;0.30;;
62633;SDS011;48704;50.534;6.442;2023-07-28T05:57:02;0.08;;;0.03;;
62633;SDS011;48704;50.534;6.442;2023-07-28T05:59:27;0.43;;;0.10;;
62633;SDS011;48704;50.534;6.442;2023-07-28T06:01:53;0.10;;;0.10;;
62633;SDS011;48704;50.534;6.442;2023-07-28T06:04:18;0.10;;;0.10;;
62633;SDS011;48704;50.534;6.442;2023-07-28T06:06:43;0.32;;;0.00;;
62633;SDS011;48704;50.534;6.442;2023-07-28T06:09:09;0.08;;;0.08;;
62633;SDS011;48704;50.534;6.442;2023-07-28T06:11:34;0.55;;;0.20;;
62633;SDS011;48704;50.534;6.442;2023-07-28T06:14:00;0.10;;;0.10;;
62633;SDS011;48704;50.534;6.442;2023-07-28T06:16:25;0.22;;;0.10;;
62633;SDS011;48704;50.534;6.442;2023-07-28T06:18:50;0.20;;;0.15;;
62633;SDS011;48704;50.534;6.442;2023-07-28T06:21:16;1.40;;;0.28;;
62633;SDS011;48704;50.534;6.442;2023-07-28T06:23:41;0.45;;;0.20;;
62633;SDS011;48704;50.534;6.442;2023-07-28T06:26:06;0.30;;;0.10;;
62633;SDS011;48704;50.534;6.442;2023-07-28T06:28:32;0.08;;;0.08;;
62633;SDS011;48704;50.534;6.442;2023-07-28T06:30:57;12.32;;;0.52;;
62633;SDS011;48704;50.534;6.442;2023-07-28T06:33:28;0.25;;;0.20;;
62633;SDS011;48704;50.534;6.442;2023-07-28T06:35:53;0.35;;;0.10;;
62633;SDS011;48704;50.534;6.442;2023-07-28T06:38:19;0.10;;;0.10;;
62633;SDS011;48704;50.534;6.442;2023-07-28T06:40:44;0.25;;;0.15;;
62633;SDS011;48704;50.534;6.442;2023-07-28T06:43:10;0.03;;;0.00;;
62633;SDS011;48704;50.534;6.442;2023-07-28T06:45:35;0.20;;;0.10;;
62633;SDS011;48704;50.534;6.442;2023-07-28T06:48:01;0.32;;;0.10;;
62633;SDS011;48704;50.534;6.442;2023-07-28T06:50:26;0.10;;;0.08;;
62633;SDS011;48704;50.534;6.442;2023-07-28T06:52:51;1.00;;;0.17;;
62633;SDS011;48704;50.534;6.442;2023-07-28T06:55:17;0.05;;;0.03;;
62633;SDS011;48704;50.534;6.442;2023-07-28T06:57:43;0.28;;;0.10;;
62633;SDS011;48704;50.534;6.442;2023-07-28T07:00:08;0.15;;;0.08;;
62633;SDS011;48704;50.534;6.442;2023-07-28T07:02:34;0.85;;;0.20;;
62633;SDS011;48704;50.534;6.442;2023-07-28T07:05:00;0.15;;;0.15;;
62633;SDS011;48704;50.534;6.442;2023-07-28T07:07:26;0.35;;;0.20;;
62633;SDS011;48704;50.534;6.442;2023-07-28T07:09:51;0.10;;;0.10;;
62633;SDS011;48704;50.534;6.442;2023-07-28T07:12:17;0.15;;;0.00;;
62633;SDS011;48704;50.534;6.442;2023-07-28T07:14:42;0.70;;;0.30;;
62633;SDS011;48704;50.534;6.442;2023-07-28T07:17:07;0.25;;;0.10;;
62633;SDS011;48704;50.534;6.442;2023-07-28T07:19:33;0.68;;;0.10;;
62633;SDS011;48704;50.534;6.442;2023-07-28T07:21:58;0.28;;;0.10;;
62633;SDS011;48704;50.534;6.442;2023-07-28T07:24:24;3.67;;;0.35;;
62633;SDS011;48704;50.534;6.442;2023-07-28T07:26:49;1.67;;;0.30;;
62633;SDS011;48704;50.534;6.442;2023-07-28T07:29:16;0.45;;;0.20;;
62633;SDS011;48704;50.534;6.442;2023-07-28T07:31:41;0.70;;;0.20;;
62633;SDS011;48704;50.534;6.442;2023-07-28T07:34:06;0.45;;;0.20;;
62633;SDS011;48704;50.534;6.442;2023-07-28T07:36:32;0.43;;;0.13;;
62633;SDS011;48704;50.534;6.442;2023-07-28T07:38:58;0.28;;;0.10;;
62633;SDS011;48704;50.534;6.442;2023-07-28T07:41:23;0.00;;;0.00;;
62633;SDS011;48704;50.534;6.442;2023-07-28T07:43:49;0.20;;;0.10;;
62633;SDS011;48704;50.534;6.442;2023-07-28T07:46:17;1.65;;;0.20;;
62633;SDS011;48704;50.534;6.442;2023-07-28T07:48:44;4.07;;;0.20;;
62633;SDS011;48704;50.534;6.442;2023-07-28T07:51:10;0.30;;;0.20;;
62633;SDS011;48704;50.534;6.442;2023-07-28T07:53:35;0.10;;;0.10;;
62633;SDS011;48704;50.534;6.442;2023-07-28T07:56:01;0.55;;;0.10;;
62633;SDS011;48704;50.534;6.442;2023-07-28T07:58:29;0.20;;;0.20;;
62633;SDS011;48704;50.534;6.442;2023-07-28T08:00:55;1.35;;;0.22;;
62633;SDS011;48704;50.534;6.442;2023-07-28T08:03:21;0.22;;;0.10;;
62633;SDS011;48704;50.534;6.442;2023-07-28T08:05:46;0.10;;;0.10;;
62633;SDS011;48704;50.534;6.442;2023-07-28T08:08:12;0.20;;;0.17;;
62633;SDS011;48704;50.534;6.442;2023-07-28T08:10:40;0.10;;;0.10;;
62633;SDS011;48704;50.534;6.442;2023-07-28T08:13:05;0.10;;;0.10;;
62633;SDS011;48704;50.534;6.442;2023-07-28T08:15:31;1.55;;;0.10;;
62633;SDS011;48704;50.534;6.442;2023-07-28T08:17:56;0.90;;;0.13;;
62633;SDS011;48704;50.534;6.442;2023-07-28T08:20:21;0.28;;;0.20;;
62633;SDS011;48704;50.534;6.442;2023-07-28T08:22:47;0.60;;;0.20;;
62633;SDS011;48704;50.534;6.442;2023-07-28T08:25:12;0.68;;;0.30;;
62633;SDS011;48704;50.534;6.442;2023-07-28T08:27:37;1.60;;;0.10;;
62633;SDS011;48704;50.534;6.442;2023-07-28T08:30:03;0.73;;;0.20;;
62633;SDS011;48704;50.534;6.442;2023-07-28T08:32:30;1.08;;;0.30;;
62633;SDS011;48704;50.534;6.442;2023-07-28T08:34:55;0.60;;;0.22;;
62633;SDS011;48704;50.534;6.442;2023-07-28T08:37:21;1.67;;;0.55;;
62633;SDS011;48704;50.534;6.442;2023-07-28T08:39:46;0.70;;;0.40;;
62633;SDS011;48704;50.534;6.442;2023-07-28T08:42:12;0.52;;;0.30;;
62633;SDS011;48704;50.534;6.442;2023-07-28T08:44:37;1.38;;;0.35;;
62633;SDS011;48704;50.534;6.442;2023-07-28T08:47:03;0.70;;;0.30;;
62633;SDS011;48704;50.534;6.442;2023-07-28T08:49:29;0.68;;;0.40;;
62633;SDS011;48704;50.534;6.442;2023-07-28T08:51:58;0.68;;;0.30;;
62633;SDS011;48704;50.534;6.442;2023-07-28T08:54:24;0.40;;;0.20;;
62633;SDS011;48704;50.534;6.442;2023-07-28T08:56:50;1.73;;;0.15;;
62633;SDS011;48704;50.534;6.442;2023-07-28T08:59:22;0.32;;;0.20;;
62633;SDS011;48704;50.534;6.442;2023-07-28T09:01:49;0.23;;;0.20;;
62633;SDS011;48704;50.534;6.442;2023-07-28T09:04:15;1.40;;;0.40;;
62633;SDS011;48704;50.534;6.442;2023-07-28T09:06:44;0.57;;;0.35;;
62633;SDS011;48704;50.534;6.442;2023-07-28T09:09:10;1.42;;;0.40;;
62633;SDS011;48704;50.534;6.442;2023-07-28T09:11:57;3.78;;;1.05;;
62633;SDS011;48704;50.534;6.442;2023-07-28T09:14:21;1.20;;;0.47;;
62633;SDS011;48704;50.534;6.442;2023-07-28T09:16:50;0.73;;;0.38;;
62633;SDS011;48704;50.534;6.442;2023-07-28T09:19:15;1.08;;;0.43;;
62633;SDS011;48704;50.534;6.442;2023-07-28T09:21:44;1.23;;;0.50;;
62633;SDS011;48704;50.534;6.442;2023-07-28T09:24:12;1.00;;;0.35;;
62633;SDS011;48704;50.534;6.442;2023-07-28T09:29:19;0.82;;;0.30;;
62633;SDS011;48704;50.534;6.442;2023-07-28T09:31:46;2.22;;;0.70;;
62633;SDS011;48704;50.534;6.442;2023-07-28T09:34:13;1.95;;;0.60;;
62633;SDS011;48704;50.534;6.442;2023-07-28T09:36:48;1.63;;;0.50;;
62633;SDS011;48704;50.534;6.442;2023-07-28T09:39:14;0.68;;;0.40;;
62633;SDS011;48704;50.534;6.442;2023-07-28T09:41:39;1.40;;;0.98;;
62633;SDS011;48704;50.534;6.442;2023-07-28T09:44:05;1.35;;;0.30;;
62633;SDS011;48704;50.534;6.442;2023-07-28T09:46:32;0.90;;;0.43;;
62633;SDS011;48704;50.534;6.442;2023-07-28T09:49:01;0.85;;;0.50;;
62633;SDS011;48704;50.534;6.442;2023-07-28T09:51:31;2.88;;;0.52;;
62633;SDS011;48704;50.534;6.442;2023-07-28T09:54:44;1.00;;;0.50;;
62633;SDS011;48704;50.534;6.442;2023-07-28T09:56:58;0.60;;;0.40;;
62633;SDS011;48704;50.534;6.442;2023-07-28T09:59:38;0.85;;;0.40;;
62633;SDS011;48704;50.534;6.442;2023-07-28T10:02:04;0.57;;;0.40;;
62633;SDS011;48704;50.534;6.442;2023-07-28T10:04:30;0.55;;;0.30;;
62633;SDS011;48704;50.534;6.442;2023-07-28T10:06:57;0.57;;;0.30;;
62633;SDS011;48704;50.534;6.442;2023-07-28T10:09:23;0.90;;;0.38;;
62633;SDS011;48704;50.534;6.442;2023-07-28T10:11:50;0.80;;;0.50;;
62633;SDS011;48704;50.534;6.442;2023-07-28T10:14:35;0.82;;;0.50;;
62633;SDS011;48704;50.534;6.442;2023-07-28T10:17:03;1.00;;;0.40;;
62633;SDS011;48704;50.534;6.442;2023-07-28T10:19:31;0.40;;;0.30;;
62633;SDS011;48704;50.534;6.442;2023-07-28T10:22:00;0.40;;;0.20;;
62633;SDS011;48704;50.534;6.442;2023-07-28T10:24:49;1.65;;;0.50;;
62633;SDS011;48704;50.534;6.442;2023-07-28T10:27:36;1.35;;;0.57;;
62633;SDS011;48704;50.534;6.442;2023-07-28T10:30:04;0.82;;;0.60;;
62633;SDS011;48704;50.534;6.442;2023-07-28T10:32:38;0.98;;;0.50;;
62633;SDS011;48704;50.534;6.442;2023-07-28T10:35:06;0.70;;;0.55;;
62633;SDS011;48704;50.534;6.442;2023-07-28T10:37:47;0.63;;;0.40;;
62633;SDS011;48704;50.534;6.442;2023-07-28T10:40:32;0.80;;;0.40;;
62633;SDS011;48704;50.534;6.442;2023-07-28T10:43:02;1.40;;;0.60;;
62633;SDS011;48704;50.534;6.442;2023-07-28T10:45:30;1.45;;;0.43;;
62633;SDS011;48704;50.534;6.442;2023-07-28T10:47:57;1.10;;;0.65;;
62633;SDS011;48704;50.534;6.442;2023-07-28T10:50:29;1.55;;;0.80;;
62633;SDS011;48704;50.534;6.442;2023-07-28T10:52:55;0.93;;;0.65;;
62633;SDS011;48704;50.534;6.442;2023-07-28T10:55:25;3.30;;;0.88;;
62633;SDS011;48704;50.534;6.442;2023-07-28T10:57:52;2.60;;;1.00;;
62633;SDS011;48704;50.534;6.442;2023-07-28T11:00:19;1.33;;;0.73;;
62633;SDS011;48704;50.534;6.442;2023-07-28T11:02:50;1.35;;;0.80;;
62633;SDS011;48704;50.534;6.442;2023-07-28T11:05:28;1.30;;;0.90;;
62633;SDS011;48704;50.534;6.442;2023-07-28T11:07:59;1.10;;;0.80;;
62633;SDS011;48704;50.534;6.442;2023-07-28T11:10:28;1.00;;;0.65;;
62633;SDS011;48704;50.534;6.442;2023-07-28T11:12:57;2.65;;;0.70;;
62633;SDS011;48704;50.534;6.442;2023-07-28T11:15:24;0.80;;;0.60;;
62633;SDS011;48704;50.534;6.442;2023-07-28T11:17:50;1.23;;;0.70;;
62633;SDS011;48704;50.534;6.442;2023-07-28T11:20:19;1.15;;;0.60;;
62633;SDS011;48704;50.534;6.442;2023-07-28T11:22:53;1.08;;;0.68;;
62633;SDS011;48704;50.534;6.442;2023-07-28T11:25:23;1.08;;;0.70;;
62633;SDS011;48704;50.534;6.442;2023-07-28T11:27:50;0.90;;;0.60;;
62633;SDS011;48704;50.534;6.442;2023-07-28T11:30:16;1.00;;;0.52;;
62633;SDS011;48704;50.534;6.442;2023-07-28T11:32:42;0.70;;;0.47;;
62633;SDS011;48704;50.534;6.442;2023-07-28T11:35:10;0.63;;;0.43;;
62633;SDS011;48704;50.534;6.442;2023-07-28T11:37:39;1.35;;;0.40;;
62633;SDS011;48704;50.534;6.442;2023-07-28T11:40:07;0.50;;;0.35;;
62633;SDS011;48704;50.534;6.442;2023-07-28T11:42:36;0.43;;;0.30;;
62633;SDS011;48704;50.534;6.442;2023-07-28T11:45:03;0.50;;;0.40;;
62633;SDS011;48704;50.534;6.442;2023-07-28T11:47:29;0.70;;;0.25;;
62633;SDS011;48704;50.534;6.442;2023-07-28T11:49:55;0.40;;;0.20;;
62633;SDS011;48704;50.534;6.442;2023-07-28T11:52:23;0.22;;;0.20;;
62633;SDS011;48704;50.534;6.442;2023-07-28T11:54:48;0.30;;;0.20;;
62633;SDS011;48704;50.534;6.442;2023-07-28T11:57:13;0.20;;;0.20;;
62633;SDS011;48704;50.534;6.442;2023-07-28T11:59:39;0.30;;;0.25;;
62633;SDS011;48704;50.534;6.442;2023-07-28T12:02:05;0.52;;;0.30;;
62633;SDS011;48704;50.534;6.442;2023-07-28T12:09:32;0.28;;;0.20;;
62633;SDS011;48704;50.534;6.442;2023-07-28T12:11:58;0.30;;;0.20;;
62633;SDS011;48704;50.534;6.442;2023-07-28T12:14:31;0.75;;;0.20;;
62633;SDS011;48704;50.534;6.442;2023-07-28T12:16:57;0.30;;;0.20;;
62633;SDS011;48704;50.534;6.442;2023-07-28T12:19:24;0.52;;;0.20;;
62633;SDS011;48704;50.534;6.442;2023-07-28T12:21:49;0.55;;;0.30;;
62633;SDS011;48704;50.534;6.442;2023-07-28T12:24:14;1.85;;;0.38;;
62633;SDS011;48704;50.534;6.442;2023-07-28T12:26:40;0.65;;;0.30;;
62633;SDS011;48704;50.534;6.442;2023-07-28T12:29:05;0.85;;;0.40;;
62633;SDS011;48704;50.534;6.442;2023-07-28T12:31:31;0.60;;;0.35;;
62633;SDS011;48704;50.534;6.442;2023-07-28T12:33:57;1.23;;;0.50;;
62633;SDS011;48704;50.534;6.442;2023-07-28T12:36:22;0.93;;;0.60;;
62633;SDS011;48704;50.534;6.442;2023-07-28T12:38:48;1.50;;;0.85;;
62633;SDS011;48704;50.534;6.442;2023-07-28T12:41:13;1.83;;;0.82;;
62633;SDS011;48704;50.534;6.442;2023-07-28T12:43:38;1.52;;;0.73;;
62633;SDS011;48704;50.534;6.442;2023-07-28T12:46:04;1.80;;;1.00;;
62633;SDS011;48704;50.534;6.442;2023-07-28T12:48:29;2.15;;;1.02;;
62633;SDS011;48704;50.534;6.442;2023-07-28T12:50:55;1.92;;;0.90;;
62633;SDS011;48704;50.534;6.442;2023-07-28T12:53:20;1.55;;;0.90;;
62633;SDS011;48704;50.534;6.442;2023-07-28T12:55:45;2.28;;;0.98;;
62633;SDS011;48704;50.534;6.442;2023-07-28T12:58:11;2.40;;;1.17;;
62633;SDS011;48704;50.534;6.442;2023-07-28T13:00:36;2.00;;;0.95;;
62633;SDS011;48704;50.534;6.442;2023-07-28T13:03:01;2.63;;;1.55;;
62633;SDS011;48704;50.534;6.442;2023-07-28T13:05:27;2.90;;;1.67;;
62633;SDS011;48704;50.534;6.442;2023-07-28T13:07:52;2.95;;;1.67;;
62633;SDS011;48704;50.534;6.442;2023-07-28T13:10:17;4.93;;;2.22;;
62633;SDS011;48704;50.534;6.442;2023-07-28T13:12:42;4.18;;;2.00;;
62633;SDS011;48704;50.534;6.442;2023-07-28T13:15:08;2.88;;;1.70;;
62633;SDS011;48704;50.534;6.442;2023-07-28T13:17:33;3.83;;;1.90;;
62633;SDS011;48704;50.534;6.442;2023-07-28T13:19:59;2.58;;;1.55;;
62633;SDS011;48704;50.534;6.442;2023-07-28T13:22:26;3.90;;;1.50;;
62633;SDS011;48704;50.534;6.442;2023-07-28T13:24:52;3.25;;;1.63;;
62633;SDS011;48704;50.534;6.442;2023-07-28T13:27:18;5.03;;;1.50;;
62633;SDS011;48704;50.534;6.442;2023-07-28T13:29:43;3.72;;;1.70;;
62633;SDS011;48704;50.534;6.442;2023-07-28T13:32:22;2.80;;;1.67;;
62633;SDS011;48704;50.534;6.442;2023-07-28T13:34:48;2.70;;;1.58;;
62633;SDS011;48704;50.534;6.442;2023-07-28T13:37:14;2.78;;;1.38;;
62633;SDS011;48704;50.534;6.442;2023-07-28T13:39:39;3.13;;;1.70;;
62633;SDS011;48704;50.534;6.442;2023-07-28T13:42:06;3.08;;;1.50;;
62633;SDS011;48704;50.534;6.442;2023-07-28T13:44:31;3.45;;;1.50;;
62633;SDS011;48704;50.534;6.442;2023-07-28T13:46:57;2.78;;;1.45;;
62633;SDS011;48704;50.534;6.442;2023-07-28T13:49:22;2.95;;;1.30;;
62633;SDS011;48704;50.534;6.442;2023-07-28T13:51:47;2.15;;;1.13;;
62633;SDS011;48704;50.534;6.442;2023-07-28T13:54:12;2.45;;;1.20;;
62633;SDS011;48704;50.534;6.442;2023-07-28T13:56:38;2.42;;;1.40;;
62633;SDS011;48704;50.534;6.442;2023-07-28T13:59:03;2.33;;;1.20;;
62633;SDS011;48704;50.534;6.442;2023-07-28T14:01:29;2.22;;;1.40;;
62633;SDS011;48704;50.534;6.442;2023-07-28T14:03:54;2.43;;;1.00;;
62633;SDS011;48704;50.534;6.442;2023-07-28T14:06:20;2.03;;;1.10;;
62633;SDS011;48704;50.534;6.442;2023-07-28T14:08:45;2.20;;;1.30;;
62633;SDS011;48704;50.534;6.442;2023-07-28T14:11:10;1.88;;;0.90;;
62633;SDS011;48704;50.534;6.442;2023-07-28T14:13:36;4.00;;;1.00;;
62633;SDS011;48704;50.534;6.442;2023-07-28T14:16:01;1.55;;;0.93;;
62633;SDS011;48704;50.534;6.442;2023-07-28T14:18:26;2.15;;;1.15;;
62633;SDS011;48704;50.534;6.442;2023-07-28T14:20:52;1.58;;;0.90;;
62633;SDS011;48704;50.534;6.442;2023-07-28T14:23:21;3.60;;;1.10;;
62633;SDS011;48704;50.534;6.442;2023-07-28T14:25:47;1.90;;;1.10;;
62633;SDS011;48704;50.534;6.442;2023-07-28T14:28:13;2.03;;;1.13;;
62633;SDS011;48704;50.534;6.442;2023-07-28T14:30:38;1.88;;;0.75;;
62633;SDS011;48704;50.534;6.442;2023-07-28T14:33:04;2.97;;;1.00;;
62633;SDS011;48704;50.534;6.442;2023-07-28T14:35:29;1.70;;;0.90;;
62633;SDS011;48704;50.534;6.442;2023-07-28T14:37:54;2.28;;;0.90;;
62633;SDS011;48704;50.534;6.442;2023-07-28T14:40:19;1.73;;;0.80;;
62633;SDS011;48704;50.534;6.442;2023-07-28T14:42:45;2.40;;;1.10;;
62633;SDS011;48704;50.534;6.442;2023-07-28T14:45:10;1.67;;;0.80;;
62633;SDS011;48704;50.534;6.442;2023-07-28T14:47:35;3.03;;;1.08;;
62633;SDS011;48704;50.534;6.442;2023-07-28T14:50:00;2.50;;;1.00;;
62633;SDS011;48704;50.534;6.442;2023-07-28T14:52:26;1.40;;;0.80;;
62633;SDS011;48704;50.534;6.442;2023-07-28T14:54:51;2.20;;;1.10;;